Time;durP1;ratioP1;P1;durP2;ratioP2;P2;SDS_P1;SDS_P2;PMS_P1;PMS_P2;Temp;Humidity;BMP_temperature;BMP_pressure;BME280_temperature;BME280_humidity;BME280_pressure;Samples;Min_cycle;Max_cycle;Signal;HPM_P1;HPM_P2
2021/03/09 00:31:01;;;;;;;114.18;47.67;;;4.50;84.80;;;;;;4929601;23;20250;-91
2021/03/09 00:34:21;;;;;;;124.60;47.33;;;4.60;86.90;;;;;;4886673;29;20224;-89
2021/03/09 00:45:04;;;;;;;132.98;52.92;;;4.70;82.80;;;;;;5841134;23;20426;-89
2021/03/09 00:47:33;;;;;;;144.05;51.28;;;2.90;81.60;;;;;;4889630;29;20261;-89
2021/03/09 00:50:01;;;;;;;134.38;51.97;;;4.50;86.40;;;;;;4890520;29;20184;-89
2021/03/09 01:21:36;;;;;;;106.80;45.77;;;4.80;84.00;;;;;;5338344;23;20228;-90
2021/03/09 01:52:31;;;;;;;108.90;46.45;;;4.50;85.30;;;;;;5442763;23;20220;-89
2021/03/09 01:54:57;;;;;;;97.93;43.80;;;4.60;88.20;;;;;;4889477;29;20204;-89
2021/03/09 02:50:48;;;;;;;72.05;37.15;;;4.80;83.20;;;;;;5440202;23;20250;-90
2021/03/09 02:53:28;;;;;;;68.90;37.08;;;4.80;85.50;;;;;;4887373;29;20212;-90
2021/03/09 03:01:06;;;;;;;70.43;35.08;;;4.60;83.50;;;;;;4960704;23;20223;-89
2021/03/09 03:03:37;;;;;;;66.10;36.05;;;4.60;85.80;;;;;;4886178;29;20272;-88
2021/03/09 03:06:06;;;;;;;77.88;37.35;;;4.60;86.00;;;;;;4900827;29;20177;-89
2021/03/09 03:08:58;;;;;;;59.97;34.28;;;4.60;82.10;;;;;;4884909;29;20177;-90
2021/03/09 03:19:14;;;;;;;64.68;33.65;;;4.60;83.50;;;;;;5079342;23;20233;-89
2021/03/09 03:21:44;;;;;;;69.50;36.63;;;4.50;86.40;;;;;;4901835;29;20173;-90
2021/03/09 03:24:35;;;;;;;70.60;35.80;;;4.50;86.20;;;;;;4885472;29;20181;-89
2021/03/09 03:27:14;;;;;;;68.57;37.10;;;6.10;86.20;;;;;;4900848;29;20189;-89
2021/03/09 03:29:58;;;;;;;70.55;35.72;;;3.20;82.50;;;;;;4899368;29;20182;-88
2021/03/09 03:32:28;;;;;;;72.88;37.22;;;4.80;85.00;;;;;;4900358;29;20252;-89
2021/03/09 03:34:57;;;;;;;70.00;34.55;;;6.40;87.00;;;;;;4853456;29;20181;-89
2021/03/09 03:37:45;;;;;;;64.40;35.83;;;4.40;87.40;;;;;;4901241;29;20181;-89
2021/03/09 03:40:20;;;;;;;75.88;37.92;;;4.00;84.20;;;;;;4886042;29;20201;-89
2021/03/09 03:43:28;;;;;;;62.42;34.58;;;6.80;87.90;;;;;;4885401;29;20169;-89
2021/03/09 03:45:57;;;;;;;68.22;32.53;;;5.20;86.20;;;;;;4871910;29;20176;-87
2021/03/09 03:48:48;;;;;;;71.13;36.83;;;4.40;87.70;;;;;;4869304;29;20193;-88
2021/03/09 03:51:36;;;;;;;80.13;38.40;;;4.40;85.50;;;;;;4879580;29;20196;-88
2021/03/09 03:54:19;;;;;;;74.68;36.05;;;4.40;88.20;;;;;;4872311;29;20288;-88
2021/03/09 03:57:28;;;;;;;72.75;38.47;;;4.30;88.50;;;;;;4882049;29;20185;-88
2021/03/09 04:00:10;;;;;;;72.88;35.88;;;6.70;89.50;;;;;;4907624;23;20363;-88
2021/03/09 04:02:37;;;;;;;75.30;36.10;;;4.30;89.40;;;;;;4884522;29;20216;-88
2021/03/09 04:05:06;;;;;;;73.72;37.25;;;3.80;88.30;;;;;;4885235;29;20174;-88
2021/03/09 04:07:57;;;;;;;83.15;39.58;;;4.20;99.90;;;;;;5163241;23;20285;-88
2021/03/09 04:10:24;;;;;;;90.68;42.65;;;3.70;88.90;;;;;;4886376;29;20190;-88
2021/03/09 04:12:51;;;;;;;86.60;43.88;;;4.00;89.40;;;;;;4886126;29;20209;-89
2021/03/09 04:15:20;;;;;;;82.18;41.72;;;4.30;90.10;;;;;;4884952;29;20181;-88
2021/03/09 04:17:46;;;;;;;91.13;42.70;;;5.50;88.10;;;;;;4902363;29;20170;-88
2021/03/09 04:20:15;;;;;;;81.10;41.00;;;3.20;87.70;;;;;;4900735;29;20177;-87
2021/03/09 04:22:44;;;;;;;98.63;48.20;;;4.20;89.40;;;;;;4901906;29;20154;-87
2021/03/09 04:25:11;;;;;;;92.07;41.75;;;3.40;85.70;;;;;;4884659;29;20182;-86
2021/03/09 04:27:38;;;;;;;76.93;39.58;;;4.10;89.80;;;;;;4870155;29;20178;-89
2021/03/09 04:30:05;;;;;;;87.82;43.47;;;4.30;90.00;;;;;;4901249;29;20184;-86
2021/03/09 04:32:32;;;;;;;90.63;40.08;;;4.20;90.30;;;;;;5111800;23;20240;-88
2021/03/09 04:37:38;;;;;;;94.10;45.63;;;4.30;88.80;;;;;;4934644;23;20242;-88
2021/03/09 04:40:08;;;;;;;97.45;45.50;;;6.20;90.30;;;;;;4904870;29;20169;-86
2021/03/09 04:42:43;;;;;;;96.00;44.30;;;4.00;90.70;;;;;;5130983;23;20289;-84
2021/03/09 04:45:12;;;;;;;90.60;44.10;;;4.10;90.50;;;;;;5295652;23;20233;-89
2021/03/09 04:47:53;;;;;;;84.30;42.95;;;4.20;88.60;;;;;;4899100;29;20185;-87
2021/03/09 04:50:21;;;;;;;95.35;46.40;;;6.70;90.80;;;;;;5050511;23;20190;-87
2021/03/09 04:52:50;;;;;;;100.05;47.38;;;4.10;90.30;;;;;;4899059;29;20233;-89
2021/03/09 04:55:21;;;;;;;104.18;50.83;;;4.00;88.00;;;;;;4885020;29;20188;-87
2021/03/09 04:57:46;;;;;;;102.70;48.25;;;4.00;90.40;;;;;;4901471;29;20225;-87
2021/03/09 05:00:15;;;;;;;106.87;54.93;;;4.00;90.60;;;;;;4947477;23;20213;-87
2021/03/09 05:02:42;;;;;;;113.50;51.72;;;4.00;90.60;;;;;;4886436;29;20449;-86
2021/03/09 05:05:11;;;;;;;110.82;54.30;;;4.00;91.00;;;;;;4902887;29;20182;-86
2021/03/09 05:07:40;;;;;;;94.55;44.05;;;4.00;90.70;;;;;;4889196;29;20162;-88
2021/03/09 05:10:07;;;;;;;100.05;51.85;;;5.10;90.20;;;;;;4887654;29;20169;-87
2021/03/09 05:12:42;;;;;;;102.40;45.05;;;4.00;90.70;;;;;;4887160;29;20204;-86
2021/03/09 05:15:10;;;;;;;96.03;49.80;;;4.00;89.10;;;;;;4886007;29;20188;-86
2021/03/09 05:17:37;;;;;;;88.20;46.00;;;4.00;90.50;;;;;;4903382;29;20169;-86
2021/03/09 05:22:40;;;;;;;106.50;47.97;;;4.00;90.00;;;;;;4643742;27;20208;-87
2021/03/09 05:25:10;;;;;;;88.90;41.63;;;3.90;91.10;;;;;;4902495;29;20172;-88
2021/03/09 05:27:36;;;;;;;94.78;49.70;;;4.00;90.90;;;;;;4901723;29;20205;-84
2021/03/09 05:30:03;;;;;;;114.60;50.45;;;3.10;90.10;;;;;;4885649;29;20196;-88
2021/03/09 05:32:30;;;;;;;91.72;46.05;;;3.90;90.80;;;;;;4903421;29;20238;-86
2021/03/09 05:34:59;;;;;;;89.70;48.20;;;3.80;90.60;;;;;;4903372;29;20186;-87
2021/03/09 05:38:04;;;;;;;97.45;46.45;;;3.90;90.60;;;;;;4901759;29;20196;-87
2021/03/09 05:40:58;;;;;;;112.93;52.25;;;6.40;91.30;;;;;;4901344;29;20213;-86
2021/03/09 05:43:39;;;;;;;98.60;46.92;;;6.40;91.40;;;;;;4900029;29;20185;-87
2021/03/09 05:46:05;;;;;;;113.78;54.22;;;3.90;91.10;;;;;;4970859;23;20252;-86
2021/03/09 05:51:06;;;;;;;107.63;52.67;;;3.90;89.90;;;;;;5071506;23;20448;-87
2021/03/09 05:53:32;;;;;;;110.87;52.00;;;5.20;91.80;;;;;;4886254;29;20398;-86
2021/03/09 05:55:57;;;;;;;114.57;58.77;;;3.80;91.10;;;;;;4966815;23;20229;-88
2021/03/09 05:58:23;;;;;;;117.97;54.50;;;3.80;91.40;;;;;;4884416;29;20185;-87
2021/03/09 06:00:50;;;;;;;110.33;51.77;;;3.90;91.70;;;;;;5106221;23;20223;-86
2021/03/09 06:03:15;;;;;;;106.20;51.58;;;4.00;91.20;;;;;;4886642;29;20189;-89
2021/03/09 06:05:45;;;;;;;95.57;43.30;;;3.90;91.30;;;;;;4902400;29;20186;-88
2021/03/09 06:08:10;;;;;;;92.30;46.53;;;3.90;89.40;;;;;;4885331;29;20193;-82
2021/03/09 06:13:52;;;;;;;95.85;41.13;;;4.00;90.00;;;;;;5042164;23;20307;-86
2021/03/09 06:17:02;;;;;;;91.50;44.92;;;3.90;91.40;;;;;;4810231;29;20184;-87
2021/03/09 06:19:55;;;;;;;81.40;40.03;;;3.80;89.70;;;;;;4826215;29;20671;-87
2021/03/09 06:23:00;;;;;;;86.28;44.28;;;3.90;90.20;;;;;;4825188;29;20199;-87
2021/03/09 06:28:40;;;;;;;81.80;42.58;;;4.00;90.40;;;;;;4931419;23;20662;-86
2021/03/09 06:31:11;;;;;;;83.20;42.65;;;4.00;99.90;;;;;;5016747;23;20309;-85
2021/03/09 06:33:39;;;;;;;93.35;42.63;;;3.80;91.40;;;;;;4884281;29;20263;-85
2021/03/09 06:38:40;;;;;;;79.93;39.03;;;3.80;90.40;;;;;;5092021;23;20229;-86
2021/03/09 06:41:16;;;;;;;69.53;36.80;;;3.80;91.30;;;;;;5235137;23;20229;-86
2021/03/09 06:44:02;;;;;;;80.67;43.77;;;3.80;91.50;;;;;;4556625;29;10000480;-89
2021/03/09 06:46:29;;;;;;;72.60;38.70;;;3.70;92.10;;;;;;4874229;29;20268;-85
2021/03/09 06:49:06;;;;;;;70.88;36.40;;;3.60;91.50;;;;;;4876873;29;20182;-88
2021/03/09 06:51:38;;;;;;;75.15;36.17;;;2.70;89.20;;;;;;4881569;29;20166;-88
2021/03/09 06:54:32;;;;;;;71.35;37.78;;;3.80;91.50;;;;;;4861762;29;20474;-87
2021/03/09 07:00:41;;;;;;;69.95;35.70;;;4.20;90.60;;;;;;4869175;29;20197;-85
2021/03/09 07:05:59;;;;;;;61.40;32.10;;;3.70;90.30;;;;;;4949848;23;20221;-86
2021/03/09 07:08:25;;;;;;;62.72;36.28;;;3.70;91.20;;;;;;4883618;29;20192;-82
2021/03/09 07:10:53;;;;;;;75.15;36.08;;;3.70;91.30;;;;;;4901064;29;20233;-87
2021/03/09 07:13:29;;;;;;;68.25;36.08;;;3.70;90.20;;;;;;4900220;29;20201;-87
2021/03/09 07:15:56;;;;;;;59.50;31.55;;;3.70;90.00;;;;;;4900129;29;20228;-85
2021/03/09 07:18:27;;;;;;;64.32;36.05;;;3.70;91.30;;;;;;4883568;29;20205;-87
2021/03/09 07:20:57;;;;;;;66.75;36.30;;;3.70;91.20;;;;;;4898318;29;20240;-88
2021/03/09 07:23:25;;;;;;;67.68;34.55;;;4.20;91.60;;;;;;4898694;29;20161;-87
2021/03/09 07:26:08;;;;;;;64.28;35.22;;;3.80;91.30;;;;;;4900897;29;20189;-87
2021/03/09 07:28:41;;;;;;;58.63;31.20;;;3.80;91.40;;;;;;4898757;29;20161;-87
2021/03/09 07:31:51;;;;;;;62.58;33.40;;;3.80;91.40;;;;;;4880635;29;20257;-86
2021/03/09 07:35:00;;;;;;;63.60;34.28;;;4.30;90.50;;;;;;4898036;29;20193;-87
2021/03/09 07:37:34;;;;;;;50.28;28.48;;;4.10;90.80;;;;;;4898507;29;20284;-86
2021/03/09 07:40:53;;;;;;;67.50;35.42;;;3.70;91.50;;;;;;4899482;29;20185;-88
2021/03/09 07:44:02;;;;;;;64.55;36.90;;;3.70;90.40;;;;;;4889168;29;20181;-86
2021/03/09 07:46:48;;;;;;;71.25;37.63;;;3.70;90.70;;;;;;4879929;29;20181;-86
2021/03/09 07:52:27;;;;;;;67.20;33.53;;;3.70;90.80;;;;;;5059842;23;20295;-86
2021/03/09 07:55:08;;;;;;;67.53;36.42;;;4.20;91.00;;;;;;4898727;29;20176;-85
2021/03/09 07:57:37;;;;;;;70.70;37.05;;;3.70;91.80;;;;;;4900228;29;20161;-85
2021/03/09 08:02:57;;;;;;;55.90;30.95;;;3.90;90.70;;;;;;4919265;23;20257;-84
2021/03/09 08:05:33;;;;;;;64.20;32.92;;;4.00;90.70;;;;;;5007671;23;20269;-88
2021/03/09 08:10:40;;;;;;;72.05;37.17;;;3.80;99.90;;;;;;5166985;23;20269;-87
2021/03/09 08:13:11;;;;;;;67.90;34.75;;;3.80;91.60;;;;;;4882859;29;20213;-87
2021/03/09 08:15:42;;;;;;;66.63;35.97;;;3.90;91.40;;;;;;4881231;29;20182;-86
2021/03/09 08:18:20;;;;;;;51.42;30.35;;;5.60;91.30;;;;;;4879596;29;20451;-83
2021/03/09 08:20:55;;;;;;;58.72;32.60;;;3.90;90.00;;;;;;4894138;29;20194;-88
2021/03/09 08:23:36;;;;;;;62.78;34.72;;;3.80;91.60;;;;;;4881018;29;20172;-87
2021/03/09 08:26:21;;;;;;;67.53;36.50;;;3.80;91.50;;;;;;4897623;29;20165;-87
2021/03/09 08:28:52;;;;;;;75.07;40.20;;;3.90;90.50;;;;;;4897645;29;20633;-86
2021/03/09 08:31:30;;;;;;;62.83;36.15;;;3.80;91.50;;;;;;4879251;29;20185;-87
2021/03/09 08:34:11;;;;;;;62.92;33.17;;;4.00;90.20;;;;;;4881999;29;20233;-86
2021/03/09 08:36:54;;;;;;;60.85;34.15;;;4.00;90.10;;;;;;4882823;29;20278;-85
2021/03/09 08:40:15;;;;;;;63.50;34.70;;;4.10;91.60;;;;;;4899698;29;20189;-87
2021/03/09 08:46:03;;;;;;;63.17;33.70;;;4.00;90.30;;;;;;4937080;23;20276;-87
2021/03/09 08:48:52;;;;;;;53.40;29.77;;;4.10;90.30;;;;;;4902584;29;20180;-87
2021/03/09 08:51:45;;;;;;;57.42;30.23;;;4.10;91.90;;;;;;4883696;29;20158;-86
2021/03/09 08:54:48;;;;;;;48.80;30.15;;;4.50;90.90;;;;;;4867486;29;20224;-86
2021/03/09 08:57:25;;;;;;;55.20;29.73;;;4.50;90.80;;;;;;4864643;29;20174;-86
2021/03/09 09:00:07;;;;;;;60.80;32.70;;;4.00;91.90;;;;;;4865190;29;20192;-85
2021/03/09 09:03:01;;;;;;;60.92;31.88;;;4.90;91.80;;;;;;4894931;29;20185;-86
2021/03/09 09:05:29;;;;;;;56.83;33.15;;;4.20;91.30;;;;;;4899774;29;20165;-85
2021/03/09 09:08:14;;;;;;;51.80;29.35;;;3.90;90.40;;;;;;4897853;29;20261;-86
2021/03/09 09:10:51;;;;;;;61.53;31.65;;;6.20;92.20;;;;;;4877699;29;20185;-85
2021/03/09 09:13:40;;;;;;;51.40;31.85;;;4.00;92.10;;;;;;4898477;29;20205;-87
2021/03/09 09:16:21;;;;;;;57.55;32.88;;;4.30;91.20;;;;;;4900414;29;20188;-87
2021/03/09 09:18:53;;;;;;;57.03;34.92;;;4.10;90.70;;;;;;4901060;29;20186;-84
2021/03/09 09:21:25;;;;;;;44.72;28.42;;;4.00;90.20;;;;;;4882146;29;20245;-87
2021/03/09 09:24:04;;;;;;;45.97;30.38;;;4.10;92.10;;;;;;4866531;29;20260;-87
2021/03/09 09:26:34;;;;;;;44.60;29.75;;;4.10;89.80;;;;;;4882906;29;20181;-88
2021/03/09 09:29:03;;;;;;;54.72;32.60;;;4.10;91.60;;;;;;4883148;29;20170;-87
2021/03/09 09:31:43;;;;;;;52.53;32.93;;;3.90;92.00;;;;;;4562040;29;9999745;-87
2021/03/09 09:37:16;;;;;;;45.17;26.95;;;3.90;90.60;;;;;;4882165;23;20221;-84
2021/03/09 09:39:45;;;;;;;45.97;27.98;;;3.90;92.40;;;;;;4986618;23;20231;-84
2021/03/09 09:42:19;;;;;;;41.35;26.13;;;5.50;91.80;;;;;;4901019;29;20189;-87
2021/03/09 09:44:55;;;;;;;43.88;27.55;;;4.00;92.00;;;;;;4884615;29;20189;-87
2021/03/09 09:51:02;;;;;;;43.25;26.40;;;4.00;91.20;;;;;;4524755;27;20230;-84
2021/03/09 09:53:31;;;;;;;48.55;29.73;;;4.20;91.60;;;;;;4861631;29;20234;-85
2021/03/09 09:56:01;;;;;;;45.83;28.13;;;4.20;92.30;;;;;;4879148;29;20295;-84
2021/03/09 09:59:09;;;;;;;44.97;27.35;;;4.20;92.20;;;;;;4876391;29;20181;-85
2021/03/09 10:01:36;;;;;;;39.42;24.95;;;6.70;92.50;;;;;;4865974;29;20182;-85
2021/03/09 10:04:06;;;;;;;41.13;25.35;;;4.30;91.80;;;;;;4874872;29;20186;-83
2021/03/09 10:06:47;;;;;;;46.75;28.92;;;4.30;91.80;;;;;;4858327;29;20214;-86
2021/03/09 10:09:23;;;;;;;41.47;27.30;;;5.50;91.60;;;;;;4862500;29;20174;-84
2021/03/09 10:12:14;;;;;;;40.05;26.23;;;4.20;90.80;;;;;;4860705;29;20182;-86
2021/03/09 10:14:54;;;;;;;37.42;22.42;;;4.10;91.90;;;;;;4859115;29;20247;-83
2021/03/09 10:17:22;;;;;;;41.00;27.05;;;4.20;91.60;;;;;;4856148;29;20179;-86
2021/03/09 10:19:55;;;;;;;36.13;24.00;;;6.00;91.60;;;;;;4856309;29;20238;-87
2021/03/09 10:22:33;;;;;;;42.00;24.80;;;3.90;90.10;;;;;;4838739;29;20238;-86
2021/03/09 10:25:23;;;;;;;36.72;24.48;;;4.20;91.90;;;;;;4851782;29;20214;-84
2021/03/09 10:28:08;;;;;;;43.55;27.83;;;4.20;91.00;;;;;;4837145;29;20203;-86
2021/03/09 10:30:55;;;;;;;46.65;26.52;;;5.30;91.40;;;;;;4841632;29;20170;-86
2021/03/09 10:33:22;;;;;;;41.63;25.80;;;4.30;91.90;;;;;;4854663;29;20344;-86
2021/03/09 10:36:10;;;;;;;45.83;29.15;;;5.90;91.40;;;;;;4852300;29;20182;-86
2021/03/09 10:39:09;;;;;;;43.70;27.15;;;4.50;90.90;;;;;;4856873;29;20546;-87
2021/03/09 10:41:38;;;;;;;40.63;26.75;;;4.80;91.20;;;;;;4847131;29;20264;-82
2021/03/09 10:46:52;;;;;;;42.22;28.38;;;4.50;91.00;;;;;;5026486;23;20236;-85
2021/03/09 10:49:21;;;;;;;41.55;26.48;;;4.50;92.00;;;;;;5073219;23;20247;-86
2021/03/09 10:51:47;;;;;;;41.40;26.00;;;4.50;92.00;;;;;;4918337;29;20184;-85
2021/03/09 10:54:28;;;;;;;37.74;24.86;;;4.50;91.80;;;;;;5110841;23;10002372;-85
2021/03/09 10:57:00;;;;;;;45.47;29.90;;;4.60;99.90;;;;;;5034563;23;20446;-83
2021/03/09 11:02:32;;;;;;;36.67;23.85;;;4.70;91.60;;;;;;4872914;23;20236;-84
2021/03/09 11:04:58;;;;;;;43.43;28.63;;;4.70;91.30;;;;;;4898883;29;20236;-86
2021/03/09 11:07:31;;;;;;;46.97;30.03;;;4.70;91.50;;;;;;4900630;29;20417;-83
2021/03/09 11:09:57;;;;;;;44.72;30.02;;;4.60;91.90;;;;;;5021187;23;20470;-85
2021/03/09 11:14:59;;;;;;;48.67;31.63;;;4.60;90.60;;;;;;4998307;23;20220;-85
2021/03/09 11:17:26;;;;;;;48.75;32.10;;;;;;;;;;4942553;23;20252;-88
2021/03/09 11:20:11;;;;;;;48.00;31.50;;;4.60;92.60;;;;;;5218191;23;21629;-84
2021/03/09 11:22:40;;;;;;;65.70;37.15;;;4.60;92.40;;;;;;4861695;29;20215;-84
2021/03/09 11:25:10;;;;;;;66.63;34.53;;;4.80;92.90;;;;;;4881138;29;20245;-85
2021/03/09 11:27:38;;;;;;;56.85;36.60;;;6.90;92.80;;;;;;4877225;29;20188;-84
2021/03/09 11:30:26;;;;;;;50.50;30.95;;;3.30;90.50;;;;;;4864749;29;20173;-86
2021/03/09 11:32:52;;;;;;;100.10;60.17;;;5.10;91.30;;;;;;4863278;29;20209;-85
2021/03/09 11:35:18;;;;;;;135.43;77.72;;;4.70;92.30;;;;;;4861186;29;20182;-85
2021/03/09 11:37:55;;;;;;;56.05;33.75;;;4.80;92.30;;;;;;4876259;29;20216;-87
2021/03/09 11:40:46;;;;;;;57.85;35.90;;;4.90;92.30;;;;;;4863098;29;20253;-85
2021/03/09 11:43:18;;;;;;;50.03;32.22;;;4.70;90.60;;;;;;4862760;29;20287;-87
2021/03/09 11:45:44;;;;;;;55.83;34.22;;;4.90;91.80;;;;;;4878548;29;20186;-87
2021/03/09 11:51:19;;;;;;;65.75;37.75;;;5.00;90.60;;;;;;4937264;23;20612;-87
2021/03/09 11:53:52;;;;;;;67.57;39.40;;;4.40;91.70;;;;;;4876367;29;20269;-85
2021/03/09 11:56:21;;;;;;;67.15;40.13;;;5.00;90.90;;;;;;4878203;29;20422;-89
2021/03/09 11:58:47;;;;;;;66.03;39.55;;;4.90;92.20;;;;;;4892402;29;20642;-85
2021/03/09 12:01:15;;;;;;;61.35;35.08;;;5.00;92.50;;;;;;4894213;29;20199;-90
2021/03/09 12:03:49;;;;;;;54.58;34.10;;;5.10;92.50;;;;;;4877283;29;20184;-88
2021/03/09 12:06:27;;;;;;;63.53;40.00;;;5.10;92.20;;;;;;4876742;29;20181;-86
2021/03/09 12:08:53;;;;;;;67.32;39.40;;;5.20;92.30;;;;;;4894451;29;20165;-84
2021/03/09 12:11:19;;;;;;;77.37;42.50;;;5.00;92.40;;;;;;4876736;29;20245;-87
2021/03/09 12:13:49;;;;;;;75.15;41.70;;;5.80;93.70;;;;;;4878614;29;20465;-87
2021/03/09 12:16:16;;;;;;;66.18;38.15;;;5.00;93.00;;;;;;4895354;29;20228;-87
2021/03/09 12:18:45;;;;;;;70.35;38.88;;;5.20;91.90;;;;;;4860298;29;20220;-86
2021/03/09 12:21:22;;;;;;;61.22;32.92;;;5.10;92.50;;;;;;4881028;29;20182;-88
2021/03/09 12:23:50;;;;;;;61.33;35.13;;;5.20;92.00;;;;;;4880497;29;20264;-87
2021/03/09 12:26:17;;;;;;;70.57;39.25;;;5.30;91.90;;;;;;4894161;29;20193;-87
2021/03/09 12:28:43;;;;;;;66.85;37.97;;;6.00;91.00;;;;;;4882512;29;20506;-85
2021/03/09 12:31:09;;;;;;;66.60;38.73;;;5.20;92.00;;;;;;4963891;23;20305;-87
2021/03/09 12:33:35;;;;;;;65.63;39.30;;;5.10;91.70;;;;;;4860583;29;20838;-85
2021/03/09 12:36:02;;;;;;;69.47;40.73;;;5.20;91.90;;;;;;4878221;29;20495;-86
2021/03/09 12:38:39;;;;;;;61.15;34.83;;;5.10;92.20;;;;;;4865953;29;20197;-86
2021/03/09 12:41:27;;;;;;;71.53;37.13;;;5.30;92.20;;;;;;4879920;29;20249;-86
2021/03/09 12:43:53;;;;;;;66.28;39.72;;;6.60;92.10;;;;;;4878462;29;20245;-85
2021/03/09 12:46:21;;;;;;;68.63;38.17;;;5.20;92.40;;;;;;4880269;29;20189;-86
2021/03/09 12:48:48;;;;;;;61.90;38.20;;;5.30;91.00;;;;;;4997267;23;20591;-86
2021/03/09 12:51:17;;;;;;;66.28;35.28;;;5.30;93.20;;;;;;4899873;29;20181;-86
2021/03/09 12:53:43;;;;;;;63.22;36.92;;;6.30;91.60;;;;;;4902071;29;20225;-85
2021/03/09 12:56:09;;;;;;;66.20;36.57;;;;;;;;;;4883594;29;20236;-85
2021/03/09 12:58:39;;;;;;;64.93;34.70;;;5.50;92.40;;;;;;4879090;29;20284;-87
2021/03/09 13:01:05;;;;;;;69.85;40.65;;;6.90;92.00;;;;;;4882402;29;20182;-87
2021/03/09 13:03:34;;;;;;;66.03;37.57;;;5.50;92.30;;;;;;4861237;29;20217;-88
2021/03/09 13:06:15;;;;;;;66.03;38.42;;;5.60;90.50;;;;;;4881239;29;20181;-86
2021/03/09 13:09:27;;;;;;;65.97;39.13;;;6.40;91.70;;;;;;4882095;29;20209;-84
2021/03/09 13:11:53;;;;;;;72.43;37.72;;;8.00;92.70;;;;;;5029676;23;20957;-85
2021/03/09 13:14:21;;;;;;;74.90;41.23;;;5.70;92.70;;;;;;4937363;29;20239;-85
2021/03/09 13:16:53;;;;;;;78.65;43.03;;;5.70;92.30;;;;;;5099371;23;20212;-86
2021/03/09 13:19:19;;;;;;;67.93;39.15;;;5.70;92.80;;;;;;4926639;24;20252;-84
2021/03/09 13:22:00;;;;;;;79.73;41.43;;;5.70;92.30;;;;;;4884487;29;20185;-88
2021/03/09 13:24:47;;;;;;;63.25;39.85;;;6.90;91.80;;;;;;4883673;29;20231;-86
2021/03/09 13:27:19;;;;;;;67.80;35.63;;;8.30;92.40;;;;;;4880898;29;20168;-86
2021/03/09 13:29:45;;;;;;;76.32;39.55;;;6.40;90.80;;;;;;4898649;29;20188;-87
2021/03/09 13:32:13;;;;;;;67.27;35.73;;;5.90;91.50;;;;;;4899516;29;20177;-85
2021/03/09 13:34:41;;;;;;;61.17;37.85;;;6.00;90.40;;;;;;4972119;23;20220;-86
2021/03/09 13:37:11;;;;;;;64.27;34.60;;;6.10;91.60;;;;;;4900628;29;20194;-87
2021/03/09 13:39:38;;;;;;;63.53;34.58;;;7.60;91.50;;;;;;4883201;29;20181;-88
2021/03/09 13:42:04;;;;;;;64.05;36.95;;;6.10;91.60;;;;;;4901566;29;20173;-88
2021/03/09 13:47:08;;;;;;;59.65;35.10;;;6.30;90.50;;;;;;4931059;24;20588;-86
2021/03/09 13:49:36;;;;;;;58.17;33.67;;;6.30;91.70;;;;;;4884225;29;20540;-89
2021/03/09 13:52:12;;;;;;;60.22;34.53;;;7.70;91.30;;;;;;4953053;23;20233;-87
2021/03/09 13:54:44;;;;;;;52.08;32.00;;;5.90;90.00;;;;;;4901762;29;20260;-87
2021/03/09 13:57:12;;;;;;;49.30;29.77;;;6.60;91.50;;;;;;4881258;29;20516;-88
2021/03/09 13:59:40;;;;;;;42.85;28.60;;;6.70;91.00;;;;;;4880919;29;20189;-88
2021/03/09 14:02:15;;;;;;;41.90;29.42;;;6.80;90.80;;;;;;4895083;29;20205;-88
2021/03/09 14:04:52;;;;;;;40.38;27.23;;;8.00;88.10;;;;;;4882627;29;20205;-88
2021/03/09 14:07:28;;;;;;;43.30;27.65;;;8.60;89.80;;;;;;4881724;29;20181;-86
2021/03/09 14:10:13;;;;;;;44.10;29.40;;;8.70;90.00;;;;;;4889839;29;20235;-86
2021/03/09 14:12:45;;;;;;;40.97;28.02;;;6.70;90.70;;;;;;4900769;29;20150;-88
2021/03/09 14:15:45;;;;;;;51.33;32.10;;;6.80;90.90;;;;;;4898556;29;20202;-87
2021/03/09 14:18:32;;;;;;;47.35;31.63;;;9.20;91.20;;;;;;5051394;23;20247;-87
2021/03/09 14:21:32;;;;;;;45.20;28.88;;;6.70;90.80;;;;;;4915371;29;20165;-89
2021/03/09 14:24:26;;;;;;;43.85;28.23;;;6.70;89.80;;;;;;4899931;29;20164;-89
2021/03/09 14:26:52;;;;;;;43.65;28.45;;;6.70;90.90;;;;;;4895346;29;20181;-89
2021/03/09 14:29:18;;;;;;;45.15;29.05;;;6.70;90.90;;;;;;4894771;29;20203;-86
2021/03/09 14:31:45;;;;;;;47.70;29.13;;;6.80;90.80;;;;;;4894045;29;20211;-87
2021/03/09 14:34:16;;;;;;;42.72;27.45;;;6.70;90.40;;;;;;4896372;29;20208;-86
2021/03/09 14:36:45;;;;;;;46.28;31.17;;;6.80;90.90;;;;;;4917941;29;20188;-86
2021/03/09 14:39:19;;;;;;;41.90;27.75;;;6.70;90.60;;;;;;4897812;29;20200;-86
2021/03/09 14:41:45;;;;;;;45.25;25.85;;;6.70;90.80;;;;;;4896083;29;20206;-87
2021/03/09 14:44:11;;;;;;;43.20;27.00;;;6.70;90.90;;;;;;4891952;29;20201;-86
2021/03/09 14:47:01;;;;;;;48.63;28.43;;;6.80;91.00;;;;;;4892319;29;20932;-89
2021/03/09 14:49:26;;;;;;;34.08;23.95;;;6.70;91.20;;;;;;4910976;29;20184;-88
2021/03/09 14:52:05;;;;;;;35.13;25.17;;;6.80;91.50;;;;;;4912193;29;20210;-87
2021/03/09 14:54:33;;;;;;;33.92;23.75;;;6.90;88.80;;;;;;4899084;29;20200;-88
2021/03/09 14:56:59;;;;;;;34.38;23.45;;;6.90;90.70;;;;;;4907618;29;20193;-89
2021/03/09 14:59:31;;;;;;;31.63;22.53;;;6.90;90.80;;;;;;4898490;29;20257;-87
2021/03/09 15:02:05;;;;;;;36.67;26.00;;;7.10;88.60;;;;;;4897812;29;20165;-87
2021/03/09 15:04:36;;;;;;;37.30;25.95;;;6.90;90.90;;;;;;4896857;29;20173;-88
2021/03/09 15:07:01;;;;;;;33.17;23.60;;;8.10;90.20;;;;;;4892471;29;20655;-89
2021/03/09 15:09:29;;;;;;;39.70;26.20;;;6.80;91.00;;;;;;4913947;29;20228;-86
2021/03/09 15:11:56;;;;;;;36.72;24.00;;;6.70;90.70;;;;;;4897159;29;20169;-88
2021/03/09 15:15:04;;;;;;;37.50;25.88;;;6.90;91.00;;;;;;4896966;29;20208;-87
2021/03/09 15:17:37;;;;;;;51.03;28.75;;;8.70;91.00;;;;;;5083886;23;20260;-87
2021/03/09 15:23:21;;;;;;;43.85;26.65;;;6.70;90.50;;;;;;5058326;23;20229;-89
2021/03/09 15:29:07;;;;;;;45.70;27.73;;;6.70;90.40;;;;;;4896916;29;20228;-89
2021/03/09 15:34:40;;;;;;;43.33;28.45;;;6.90;90.40;;;;;;5112065;23;20236;-87
2021/03/09 15:37:21;;;;;;;46.47;30.83;;;9.30;91.60;;;;;;4891224;29;20192;-88
2021/03/09 15:39:49;;;;;;;46.58;31.27;;;7.70;90.50;;;;;;4953656;23;20315;-87
2021/03/09 15:42:51;;;;;;;50.75;32.08;;;6.90;91.20;;;;;;4897360;29;20169;-88
2021/03/09 15:45:27;;;;;;;57.85;31.98;;;9.10;91.60;;;;;;4898292;29;20172;-89
2021/03/09 15:48:32;;;;;;;61.80;35.10;;;7.90;90.60;;;;;;4913714;29;20176;-90
2021/03/09 15:51:31;;;;;;;61.78;35.38;;;7.80;90.40;;;;;;4898505;29;20279;-88
2021/03/09 15:54:20;;;;;;;56.33;36.58;;;9.10;91.60;;;;;;4897967;29;20228;-89
2021/03/09 16:00:00;;;;;;;69.65;36.60;;;9.00;91.40;;;;;;4916574;29;20198;-86
2021/03/09 16:02:26;;;;;;;58.03;34.60;;;7.10;90.60;;;;;;4899967;29;20217;-89
2021/03/09 16:04:53;;;;;;;60.22;35.75;;;6.70;92.10;;;;;;4915040;29;20209;-88
2021/03/09 16:07:30;;;;;;;57.88;33.42;;;6.70;91.30;;;;;;4882124;29;20223;-88
2021/03/09 16:09:58;;;;;;;57.35;35.80;;;8.10;91.00;;;;;;4886996;29;20188;-86
2021/03/09 16:12:26;;;;;;;60.33;35.45;;;6.80;89.30;;;;;;4897087;29;20177;-88
2021/03/09 16:14:56;;;;;;;58.33;35.38;;;8.10;91.00;;;;;;4882424;29;20191;-88
2021/03/09 16:17:22;;;;;;;68.40;36.38;;;8.10;91.00;;;;;;4913464;29;20549;-86
2021/03/09 16:20:11;;;;;;;61.60;37.47;;;6.60;91.90;;;;;;4915312;29;20173;-88
2021/03/09 16:22:38;;;;;;;57.10;35.58;;;7.10;90.60;;;;;;4911723;29;20180;-89
2021/03/09 16:25:05;;;;;;;54.25;35.72;;;6.70;91.60;;;;;;4913143;29;20213;-89
2021/03/09 16:27:32;;;;;;;60.05;36.78;;;6.80;91.40;;;;;;4896284;29;20168;-87
2021/03/09 16:30:05;;;;;;;56.35;34.60;;;6.90;91.30;;;;;;4913768;29;20187;-87
2021/03/09 16:32:34;;;;;;;60.90;35.35;;;9.30;91.40;;;;;;4895616;29;20298;-90
2021/03/09 16:35:04;;;;;;;48.13;30.63;;;7.20;90.20;;;;;;4898526;29;20671;-87
2021/03/09 16:38:01;;;;;;;58.25;33.95;;;8.80;91.50;;;;;;4900429;29;20256;-89
2021/03/09 16:40:57;;;;;;;51.53;30.75;;;8.60;91.40;;;;;;4852206;29;20242;-90
2021/03/09 16:43:53;;;;;;;51.22;31.48;;;6.70;90.20;;;;;;4896477;29;20170;-88
2021/03/09 16:46:41;;;;;;;49.42;31.23;;;7.40;90.50;;;;;;4883375;29;20666;-86
2021/03/09 16:49:45;;;;;;;53.63;34.25;;;7.70;90.70;;;;;;4896362;29;20177;-87
2021/03/09 16:52:40;;;;;;;50.97;29.80;;;6.80;91.80;;;;;;5049190;23;20209;-86
2021/03/09 16:55:56;;;;;;;46.17;26.77;;;6.70;91.80;;;;;;4915498;29;20188;-87
2021/03/09 17:01:14;;;;;;;47.30;25.15;;;7.70;90.90;;;;;;4945960;23;20240;-87
2021/03/09 17:03:40;;;;;;;34.10;22.20;;;6.60;91.20;;;;;;4886184;29;20177;-87
2021/03/09 17:06:26;;;;;;;35.90;22.25;;;6.60;91.50;;;;;;4900195;29;20180;-86
2021/03/09 17:08:52;;;;;;;27.10;18.38;;;6.30;90.10;;;;;;4943165;23;20320;-85
2021/03/09 17:11:20;;;;;;;27.47;17.80;;;8.80;92.90;;;;;;4894835;23;20254;-84